Time;durP1;ratioP1;P1;durP2;ratioP2;P2;SDS_P1;SDS_P2;PMS_P1;PMS_P2;Temp;Humidity;BMP_temperature;BMP_pressure;BME280_temperature;BME280_humidity;BME280_pressure;Samples;Min_cycle;Max_cycle;Signal;HPM_P1;HPM_P2
2019/04/06 00:00:06;;;;;;;57.6;33.4;;;;;;;7.07;71.9541;949.7424;;;;
2019/04/06 00:02:35;;;;;;;57.9;33.9;;;;;;;7.09;71.84277;949.7612;;;;
2019/04/06 00:04:56;;;;;;;57.7;33.8;;;;;;;7.12;72.14551;949.7498;;;;
2019/04/06 00:07:24;;;;;;;67.6;40.3;;;;;;;7.19;72.03125;949.6945;;;;
2019/04/06 00:09:46;;;;;;;58.4;34.6;;;;;;;7.27;71.62012;949.701;;;;
2019/04/06 00:12:11;;;;;;;59.3;35.4;;;;;;;7.36;71.05078;949.6736;;;;
2019/04/06 00:14:36;;;;;;;57.6;34.2;;;;;;;7.37;71.42969;949.6981;;;;
2019/04/06 00:17:02;;;;;;;54.6;33.4;;;;;;;7.39;71.89355;949.6736;;;;
2019/04/06 00:19:28;;;;;;;54.6;32.8;;;;;;;7.42;71.61035;949.6749;;;;
2019/04/06 00:21:53;;;;;;;59;34.5;;;;;;;7.46;71.65137;949.683;;;;
2019/04/06 00:24:18;;;;;;;56.3;33.6;;;;;;;7.5;71.33691;949.6479;;;;
2019/04/06 00:26:44;;;;;;;55.9;32.5;;;;;;;7.53;71.70996;949.5845;;;;
2019/04/06 00:29:09;;;;;;;55.4;34.1;;;;;;;7.57;72.01465;949.5379;;;;
2019/04/06 00:31:54;;;;;;;53.4;32.9;;;;;;;7.64;71.31348;949.5294;;;;
2019/04/06 00:34:04;;;;;;;53.1;32.9;;;;;;;7.66;71.47852;949.4464;;;;
2019/04/06 00:36:29;;;;;;;62;34.8;;;;;;;7.68;72.14941;949.4348;;;;
2019/04/06 00:38:54;;;;;;;56.3;33.1;;;;;;;7.75;71.73438;949.5027;;;;
2019/04/06 00:41:20;;;;;;;56.3;33.9;;;;;;;7.81;71.29785;949.4866;;;;
2019/04/06 00:43:45;;;;;;;57.8;36.6;;;;;;;7.85;71.06152;949.4992;;;;
2019/04/06 00:46:10;;;;;;;59.3;35.8;;;;;;;7.92;70.83105;949.4439;;;;
2019/04/06 00:48:35;;;;;;;59.3;35.3;;;;;;;7.95;70.81445;949.4149;;;;
2019/04/06 00:51:01;;;;;;;57;34.4;;;;;;;7.96;70.94238;949.3998;;;;
2019/04/06 00:53:26;;;;;;;59.5;35.4;;;;;;;7.98;71.00293;949.3892;;;;
2019/04/06 00:55:51;;;;;;;61.5;36.2;;;;;;;7.94;71.28418;949.403;;;;
2019/04/06 00:58:16;;;;;;;65.8;37.7;;;;;;;7.97;70.91113;949.4029;;;;
2019/04/06 01:00:41;;;;;;;62.6;35.5;;;;;;;7.97;72.42773;949.4293;;;;
2019/04/06 01:03:06;;;;;;;61.2;35.3;;;;;;;7.98;72.19922;949.5;;;;
2019/04/06 01:05:31;;;;;;;58.9;35.6;;;;;;;7.96;71.87402;949.5234;;;;
2019/04/06 01:07:57;;;;;;;58;35.2;;;;;;;7.92;72.28223;949.5792;;;;
2019/04/06 01:10:22;;;;;;;57.9;34.8;;;;;;;7.94;72.18164;949.6108;;;;
2019/04/06 01:12:47;;;;;;;62.1;35.6;;;;;;;7.98;71.88867;949.6362;;;;
2019/04/06 01:15:12;;;;;;;56.3;35.8;;;;;;;8;71.86816;949.5658;;;;
2019/04/06 01:17:37;;;;;;;54.4;33.7;;;;;;;8.02;71.96289;949.5678;;;;
2019/04/06 01:20:03;;;;;;;59.9;35.6;;;;;;;8.04;72.08301;949.5092;;;;
2019/04/06 01:22:28;;;;;;;55.6;34.6;;;;;;;8.09;71.88281;949.4867;;;;
2019/04/06 01:24:53;;;;;;;58.9;35.1;;;;;;;8.11;71.87598;949.4919;;;;
2019/04/06 01:27:18;;;;;;;58.4;35.4;;;;;;;8.06;71.79785;949.5329;;;;
2019/04/06 01:29:43;;;;;;;58.4;35.3;;;;;;;8.06;71.74023;949.5839;;;;
2019/04/06 01:32:09;;;;;;;59.2;35.8;;;;;;;7.99;72.66016;949.5579;;;;
2019/04/06 01:34:34;;;;;;;58.8;35.4;;;;;;;7.93;73.20215;949.591;;;;
2019/04/06 01:36:59;;;;;;;61.9;36.9;;;;;;;7.89;73.45996;949.6387;;;;
2019/04/06 01:39:24;;;;;;;62.9;37.3;;;;;;;7.87;72.73242;949.615;;;;
2019/04/06 01:41:49;;;;;;;62.7;36.8;;;;;;;7.91;72.89844;949.5898;;;;
2019/04/06 01:44:14;;;;;;;60.4;35.9;;;;;;;7.95;72.72363;949.5676;;;;
2019/04/06 01:46:40;;;;;;;60.3;36.2;;;;;;;7.97;72.56543;949.5136;;;;
2019/04/06 01:49:05;;;;;;;59.6;35.8;;;;;;;8.03;72.44922;949.5111;;;;
2019/04/06 01:51:30;;;;;;;64.1;38;;;;;;;8.03;72.49512;949.5023;;;;
2019/04/06 01:53:55;;;;;;;59.4;36.6;;;;;;;8.04;72.47363;949.3819;;;;
2019/04/06 01:56:20;;;;;;;62.2;36.5;;;;;;;8.07;72.07617;949.3575;;;;
2019/04/06 01:58:45;;;;;;;62.6;37.4;;;;;;;8.12;72.39355;949.3938;;;;
2019/04/06 02:01:24;;;;;;;61.6;36.3;;;;;;;8.16;72.01172;949.401;;;;
2019/04/06 02:03:36;;;;;;;62.2;36.8;;;;;;;8.21;71.91504;949.4118;;;;
2019/04/06 02:08:39;;;;;;;62.6;36.5;;;;;;;8.26;71.90039;949.3042;;;;
2019/04/06 02:11:04;;;;;;;58.8;35.6;;;;;;;8.27;71.77441;949.3278;;;;
2019/04/06 02:13:29;;;;;;;61.5;36.5;;;;;;;8.28;71.69727;949.3181;;;;
2019/04/06 02:15:54;;;;;;;62.8;37.6;;;;;;;8.28;71.90332;949.3485;;;;
2019/04/06 02:18:19;;;;;;;63.3;38.4;;;;;;;8.28;71.4668;949.2927;;;;
2019/04/06 02:20:45;;;;;;;65.9;38.6;;;;;;;8.26;71.75;949.2955;;;;
2019/04/06 02:23:10;;;;;;;68;39.4;;;;;;;8.21;72.09961;949.2932;;;;
2019/04/06 02:25:35;;;;;;;70.3;39.8;;;;;;;8.12;72.54297;949.2919;;;;
2019/04/06 02:28:00;;;;;;;66.4;38.7;;;;;;;8.17;72.23047;949.3197;;;;
2019/04/06 02:30:31;;;;;;;72.6;40.7;;;;;;;8.2;72.14258;949.3666;;;;
2019/04/06 02:32:59;;;;;;;67.5;40.6;;;;;;;8.24;72.03516;949.3738;;;;
2019/04/06 02:35:27;;;;;;;68.5;39.4;;;;;;;8.3;71.79199;949.3153;;;;
2019/04/06 02:44:30;;;;;;;65.8;39;;;;;;;8.37;71.6543;949.248;;;;
2019/04/06 02:46:55;;;;;;;63.5;38.2;;;;;;;8.37;71.6084;949.2647;;;;
2019/04/06 02:49:20;;;;;;;64.1;39.3;;;;;;;8.39;71.25488;949.2541;;;;
2019/04/06 02:51:47;;;;;;;71;40.2;;;;;;;8.42;71.11133;949.2452;;;;
2019/04/06 02:54:12;;;;;;;67.9;40.6;;;;;;;8.44;70.56152;949.2766;;;;
2019/04/06 02:56:37;;;;;;;65.4;37.8;;;;;;;8.4;71.72852;949.2522;;;;
2019/04/06 02:59:02;;;;;;;61.2;35.9;;;;;;;8.39;71.97949;949.258;;;;
2019/04/06 03:01:27;;;;;;;60.1;35.4;;;;;;;8.35;72.12207;949.1989;;;;
2019/04/06 03:03:53;;;;;;;52.7;34.1;;;;;;;8.39;71.64648;949.1776;;;;
2019/04/06 03:06:18;;;;;;;56.6;34.7;;;;;;;8.38;71.20605;949.3109;;;;
2019/04/06 03:08:43;;;;;;;60.4;36.1;;;;;;;8.39;71.3125;949.2541;;;;
2019/04/06 03:11:08;;;;;;;58;35.7;;;;;;;8.39;71.28809;949.2119;;;;
2019/04/06 03:13:33;;;;;;;60.4;36.1;;;;;;;8.36;71.50391;949.2274;;;;
2019/04/06 03:15:59;;;;;;;60;36.1;;;;;;;8.39;71.06934;949.1736;;;;
2019/04/06 03:18:25;;;;;;;62;37.3;;;;;;;8.39;71.26465;949.199;;;;
2019/04/06 03:20:51;;;;;;;59.2;35.4;;;;;;;8.37;71.6084;949.2226;;;;
2019/04/06 03:23:16;;;;;;;59.4;35.7;;;;;;;8.38;71.55078;949.2001;;;;
2019/04/06 03:25:41;;;;;;;56.7;34.9;;;;;;;8.37;71.48145;949.2353;;;;
2019/04/06 03:28:06;;;;;;;59.3;36.4;;;;;;;8.34;71.60449;949.1449;;;;
2019/04/06 03:30:31;;;;;;;62.8;36.4;;;;;;;8.34;71.80957;949.192;;;;
2019/04/06 03:32:56;;;;;;;59;34.7;;;;;;;8.37;71.59668;949.197;;;;
2019/04/06 03:35:21;;;;;;;52.8;33.1;;;;;;;8.33;71.87695;949.2017;;;;
2019/04/06 03:37:47;;;;;;;51.1;32.5;;;;;;;8.33;72.08594;949.1714;;;;
2019/04/06 03:40:13;;;;;;;61.3;36;;;;;;;8.35;72.22559;949.1822;;;;
2019/04/06 03:42:38;;;;;;;59.5;35.9;;;;;;;8.38;72.27637;949.1746;;;;
2019/04/06 03:45:04;;;;;;;61.8;36.7;;;;;;;8.41;72.21191;949.1669;;;;
2019/04/06 03:47:29;;;;;;;57.7;35.2;;;;;;;8.43;72.31934;949.2314;;;;
2019/04/06 03:49:54;;;;;;;61.4;35.9;;;;;;;8.47;71.69531;949.2856;;;;
2019/04/06 03:52:20;;;;;;;58.6;35;;;;;;;8.49;71.5127;949.1602;;;;
2019/04/06 03:54:45;;;;;;;57.3;35.4;;;;;;;8.52;71.35742;949.2073;;;;
2019/04/06 03:57:19;;;;;;;57.2;35.5;;;;;;;8.45;71.49512;949.2119;;;;
2019/04/06 03:59:44;;;;;;;58.8;34.4;;;;;;;8.5;71.41016;949.223;;;;
2019/04/06 04:02:27;;;;;;;64.8;36.9;;;;;;;8.42;71.65039;949.1866;;;;
2019/04/06 04:04:52;;;;;;;61.8;36.4;;;;;;;8.43;72.06836;949.2609;;;;
2019/04/06 04:08:26;;;;;;;61.9;37.2;;;;;;;8.44;72.125;949.201;;;;
2019/04/06 04:10:51;;;;;;;64;37.1;;;;;;;8.42;71.67383;949.1356;;;;
2019/04/06 04:13:16;;;;;;;62.1;37.2;;;;;;;8.41;71.62598;949.166;;;;
2019/04/06 04:15:41;;;;;;;61.5;37.2;;;;;;;8.34;72.21289;949.1753;;;;
2019/04/06 04:18:06;;;;;;;60.4;36.9;;;;;;;8.35;72.22754;949.1774;;;;
2019/04/06 04:20:32;;;;;;;56.6;34.6;;;;;;;8.38;72.35645;949.2255;;;;
2019/04/06 04:22:57;;;;;;;58.1;35.4;;;;;;;8.39;72.63574;949.3178;;;;
2019/04/06 04:25:22;;;;;;;61;36.3;;;;;;;8.38;72.70313;949.3354;;;;
2019/04/06 04:27:47;;;;;;;59.2;35.3;;;;;;;8.41;72.19043;949.3915;;;;
2019/04/06 04:30:12;;;;;;;58.9;34.6;;;;;;;8.43;72.27344;949.3334;;;;
2019/04/06 04:32:37;;;;;;;55.7;33.8;;;;;;;8.43;72.43457;949.3256;;;;
2019/04/06 04:35:02;;;;;;;58.3;34.9;;;;;;;8.43;72.13574;949.3295;;;;
2019/04/06 04:37:27;;;;;;;58.5;34.9;;;;;;;8.43;71.83594;949.3256;;;;
2019/04/06 04:39:52;;;;;;;59.6;34.8;;;;;;;8.44;72.29785;949.3452;;;;
2019/04/06 04:42:18;;;;;;;60;35.4;;;;;;;8.43;72.12402;949.3893;;;;
2019/04/06 04:44:43;;;;;;;59.3;34.9;;;;;;;8.44;72.05664;949.3708;;;;
2019/04/06 04:47:08;;;;;;;62.5;35.3;;;;;;;8.45;71.81738;949.3777;;;;
2019/04/06 04:49:37;;;;;;;58.4;36.2;;;;;;;8.48;71.77637;949.3661;;;;
2019/04/06 04:52:00;;;;;;;62.5;36.4;;;;;;;8.48;72.0752;949.3787;;;;
2019/04/06 04:54:25;;;;;;;58.6;35.7;;;;;;;8.48;72.77734;949.4034;;;;
2019/04/06 04:56:50;;;;;;;62.6;36.6;;;;;;;8.47;72.99512;949.4307;;;;
2019/04/06 04:59:15;;;;;;;64.5;36.9;;;;;;;8.52;72.00195;949.4664;;;;
2019/04/06 05:01:40;;;;;;;64.5;37.9;;;;;;;8.56;71.98535;949.479;;;;
2019/04/06 05:04:05;;;;;;;68.6;38.8;;;;;;;8.42;72.36426;949.467;;;;
2019/04/06 05:06:32;;;;;;;64.2;37.9;;;;;;;8.33;72.66113;949.4901;;;;
2019/04/06 05:08:57;;;;;;;68.9;39.2;;;;;;;8.38;72.88574;949.5187;;;;
2019/04/06 05:11:22;;;;;;;63.5;38.6;;;;;;;8.44;72.67969;949.5188;;;;
2019/04/06 05:13:47;;;;;;;67.1;39.3;;;;;;;8.52;72.78418;949.5222;;;;
2019/04/06 05:16:12;;;;;;;66.2;37.4;;;;;;;8.55;73.04297;949.5397;;;;
2019/04/06 05:18:37;;;;;;;65.8;37.9;;;;;;;8.57;73.08105;949.6007;;;;
2019/04/06 05:21:03;;;;;;;63.3;37.8;;;;;;;8.61;72.59277;949.6127;;;;
2019/04/06 05:23:28;;;;;;;65.1;37.9;;;;;;;8.59;72.98047;949.6155;;;;
2019/04/06 05:25:53;;;;;;;67.4;38.9;;;;;;;8.66;72.74023;949.6911;;;;
2019/04/06 05:28:18;;;;;;;66;39;;;;;;;8.66;72.68066;949.6234;;;;
2019/04/06 05:30:43;;;;;;;68.3;39.6;;;;;;;8.69;72.84863;949.654;;;;
2019/04/06 05:33:09;;;;;;;66;38.1;;;;;;;8.72;72.77246;949.7051;;;;
2019/04/06 05:35:34;;;;;;;68.4;39.4;;;;;;;8.74;72.75391;949.6729;;;;
2019/04/06 05:37:59;;;;;;;69.7;39.4;;;;;;;8.79;72.38281;949.6404;;;;
2019/04/06 05:40:29;;;;;;;66.4;39.2;;;;;;;8.82;71.86719;949.6622;;;;
2019/04/06 05:42:51;;;;;;;68.5;40.4;;;;;;;8.87;71.38086;949.6948;;;;
2019/04/06 05:45:16;;;;;;;63.9;39.2;;;;;;;8.9;71.32715;949.678;;;;
2019/04/06 05:47:41;;;;;;;68.1;40.3;;;;;;;8.94;71.14844;949.6987;;;;
2019/04/06 05:50:07;;;;;;;68.9;39;;;;;;;8.98;71.80273;949.6891;;;;
2019/04/06 05:52:32;;;;;;;63.4;38;;;;;;;9.03;72.38672;949.6821;;;;
2019/04/06 05:54:57;;;;;;;63.1;38.2;;;;;;;9.04;72.51563;949.7361;;;;
2019/04/06 05:57:22;;;;;;;63.9;38.6;;;;;;;9.04;72.36523;949.7872;;;;
2019/04/06 05:59:48;;;;;;;64.6;38.3;;;;;;;9.05;72.38965;949.7018;;;;
2019/04/06 06:02:12;;;;;;;68.1;39.8;;;;;;;9.11;72.22754;949.7786;;;;
2019/04/06 06:04:37;;;;;;;69.5;39.7;;;;;;;9.15;72.16406;949.8247;;;;
2019/04/06 06:07:03;;;;;;;66.7;39;;;;;;;9.19;72.12598;949.7767;;;;
2019/04/06 06:09:28;;;;;;;64.6;39.5;;;;;;;9.23;72.15625;949.7628;;;;
2019/04/06 06:11:53;;;;;;;63.2;37.2;;;;;;;9.28;72.04688;949.813;;;;
2019/04/06 06:14:18;;;;;;;64.4;38.4;;;;;;;9.31;71.76465;949.8131;;;;
2019/04/06 06:16:43;;;;;;;68.5;40;;;;;;;9.21;72;949.8474;;;;
2019/04/06 06:19:08;;;;;;;68.3;40.1;;;;;;;9.2;72.04492;949.8484;;;;
2019/04/06 06:21:33;;;;;;;69.2;39.7;;;;;;;9.23;71.88965;949.7896;;;;
2019/04/06 06:23:59;;;;;;;66.4;39.3;;;;;;;9.2;71.68848;949.8563;;;;
2019/04/06 06:26:24;;;;;;;67.2;41.2;;;;;;;9.27;71.45801;949.7795;;;;
2019/04/06 06:28:49;;;;;;;67;40.4;;;;;;;9.32;71.4209;949.7817;;;;
2019/04/06 06:31:14;;;;;;;63.4;39.1;;;;;;;9.39;71.1416;949.7177;;;;
2019/04/06 06:33:39;;;;;;;69.2;42;;;;;;;9.29;72.11719;949.7394;;;;
2019/04/06 06:36:04;;;;;;;71.5;42.2;;;;;;;9.32;71.4541;949.7866;;;;
2019/04/06 06:38:30;;;;;;;70.3;42.2;;;;;;;9.34;71.2168;949.7621;;;;
2019/04/06 06:40:55;;;;;;;67;40.2;;;;;;;9.42;70.5127;949.8287;;;;
2019/04/06 06:43:20;;;;;;;68.3;41.1;;;;;;;9.49;70.32813;949.8189;;;;
2019/04/06 06:45:45;;;;;;;68.9;41.9;;;;;;;9.57;70.13379;949.7414;;;;
2019/04/06 06:48:10;;;;;;;71.8;43.3;;;;;;;9.59;69.69922;949.8611;;;;
2019/04/06 06:50:35;;;;;;;70.9;41.2;;;;;;;9.65;69.9043;949.8071;;;;
2019/04/06 06:53:00;;;;;;;142.7;98.2;;;;;;;9.69;70.03809;949.8314;;;;
2019/04/06 06:55:26;;;;;;;96.9;62.5;;;;;;;9.67;70.78613;949.817;;;;
2019/04/06 06:57:51;;;;;;;72.4;44.4;;;;;;;9.69;69.66699;949.8239;;;;
2019/04/06 07:00:16;;;;;;;71.9;43.3;;;;;;;9.75;69.41309;949.8109;;;;
2019/04/06 07:02:41;;;;;;;70.9;42.2;;;;;;;9.76;69.3916;949.8817;;;;
2019/04/06 07:05:06;;;;;;;68.7;42;;;;;;;9.79;69.08594;949.8267;;;;
2019/04/06 07:07:31;;;;;;;69.2;42.3;;;;;;;9.83;69.16016;949.8519;;;;
2019/04/06 07:10:03;;;;;;;71.2;43.4;;;;;;;9.86;69.16504;949.8903;;;;
2019/04/06 07:12:28;;;;;;;67.2;43;;;;;;;9.87;69.44336;949.795;;;;
2019/04/06 07:14:54;;;;;;;68.2;42.7;;;;;;;9.92;69.31348;949.7711;;;;
2019/04/06 07:17:19;;;;;;;72.1;42.7;;;;;;;9.93;69.69629;949.7662;;;;
2019/04/06 07:19:45;;;;;;;215;140;;;;;;;9.72;70.6084;949.7469;;;;
2019/04/06 07:22:10;;;;;;;73.8;44.5;;;;;;;9.8;70.26367;949.7795;;;;
2019/04/06 07:24:35;;;;;;;67.1;42.4;;;;;;;9.93;69.49805;949.775;;;;
2019/04/06 07:27:00;;;;;;;69.1;43.8;;;;;;;9.99;69.56641;949.7495;;;;
2019/04/06 07:29:25;;;;;;;66.1;42.1;;;;;;;10.05;69.4375;949.8053;;;;
2019/04/06 07:31:51;;;;;;;71.2;43.3;;;;;;;10.14;69.45313;949.7296;;;;
2019/04/06 07:34:16;;;;;;;74.2;44.4;;;;;;;10.15;68.98047;949.7706;;;;
2019/04/06 07:36:41;;;;;;;72;45;;;;;;;10.15;69.16406;949.7335;;;;
2019/04/06 07:39:07;;;;;;;70.2;44.6;;;;;;;10.21;69.13965;949.7256;;;;
2019/04/06 07:41:32;;;;;;;68.6;44.5;;;;;;;10.19;69.0332;949.7148;;;;
2019/04/06 07:43:57;;;;;;;65.9;43;;;;;;;10.27;69.11328;949.7521;;;;
2019/04/06 07:46:22;;;;;;;66.3;43.4;;;;;;;10.36;68.875;949.7862;;;;
2019/04/06 07:48:48;;;;;;;66;43.4;;;;;;;10.4;68.78906;949.6274;;;;
2019/04/06 07:51:13;;;;;;;68.6;43.8;;;;;;;10.53;68.4043;949.6269;;;;
2019/04/06 07:53:40;;;;;;;68.5;43.6;;;;;;;10.58;67.61328;949.5953;;;;
2019/04/06 07:56:05;;;;;;;63.6;42.1;;;;;;;10.72;67.96094;949.6655;;;;
2019/04/06 07:58:31;;;;;;;65.2;43.1;;;;;;;10.87;67.60254;949.6576;;;;
2019/04/06 08:00:57;;;;;;;88.5;60.8;;;;;;;10.89;67.61719;949.6506;;;;
2019/04/06 08:03:22;;;;;;;68.8;44.4;;;;;;;10.95;67.77441;949.678;;;;
2019/04/06 08:05:47;;;;;;;72.9;46.3;;;;;;;10.93;68.18945;949.6584;;;;
2019/04/06 08:08:13;;;;;;;72.1;46.9;;;;;;;11;68.66309;949.6066;;;;
2019/04/06 08:10:37;;;;;;;65.8;44.7;;;;;;;11.07;68.01563;949.5925;;;;
2019/04/06 08:13:02;;;;;;;63.2;42.9;;;;;;;11.16;68.20313;949.5633;;;;
2019/04/06 08:15:27;;;;;;;64.6;44.9;;;;;;;11.14;69.41699;949.6216;;;;
2019/04/06 08:17:53;;;;;;;58.6;41.1;;;;;;;11.61;67.19434;949.5567;;;;
2019/04/06 08:20:17;;;;;;;56.5;41.2;;;;;;;11.79;66.21484;949.5868;;;;
2019/04/06 08:22:43;;;;;;;58.1;41.2;;;;;;;11.96;65.58887;949.5389;;;;
2019/04/06 08:25:08;;;;;;;58.9;42.2;;;;;;;12.09;65.24902;949.5544;;;;
2019/04/06 08:27:33;;;;;;;62.1;42.4;;;;;;;12.18;66.06348;949.5593;;;;
2019/04/06 08:29:58;;;;;;;60.2;42.5;;;;;;;12.25;67.0752;949.5356;;;;
2019/04/06 08:32:23;;;;;;;57.3;41.8;;;;;;;12.42;65.85645;949.5171;;;;
2019/04/06 08:34:49;;;;;;;56.9;41.7;;;;;;;12.39;65.03906;949.4946;;;;
2019/04/06 08:37:14;;;;;;;53;40.7;;;;;;;12.43;64.8584;949.438;;;;
2019/04/06 08:39:40;;;;;;;54.1;38.5;;;;;;;12.66;64.34668;949.5941;;;;
2019/04/06 08:42:04;;;;;;;51.7;38.6;;;;;;;12.83;63.5918;949.6253;;;;
2019/04/06 08:44:29;;;;;;;52.6;38.6;;;;;;;12.96;62.72852;949.58;;;;
2019/04/06 08:46:54;;;;;;;49.9;38.7;;;;;;;13;62.52539;949.63;;;;
2019/04/06 08:49:19;;;;;;;52.4;39.7;;;;;;;13.09;62.00098;949.5961;;;;
2019/04/06 08:51:45;;;;;;;50.9;38.3;;;;;;;13.09;61.32617;949.515;;;;
2019/04/06 08:54:10;;;;;;;51.9;39.9;;;;;;;13.12;63.35645;949.5403;;;;
2019/04/06 08:56:35;;;;;;;50.5;38.6;;;;;;;13.31;61.90625;949.5041;;;;
2019/04/06 08:59:00;;;;;;;46.2;35.3;;;;;;;13.4;60.01953;949.5035;;;;
2019/04/06 09:01:26;;;;;;;44.9;35.7;;;;;;;13.55;60.85547;949.5082;;;;
2019/04/06 09:03:51;;;;;;;44;35.1;;;;;;;13.68;61.29395;949.4842;;;;
2019/04/06 09:06:16;;;;;;;44;34.5;;;;;;;13.99;61.30176;949.4135;;;;
2019/04/06 09:08:41;;;;;;;43.8;34;;;;;;;14.43;60.89648;949.3182;;;;
2019/04/06 09:11:06;;;;;;;41.4;34.2;;;;;;;14.75;57.35547;949.3295;;;;
2019/04/06 09:13:32;;;;;;;44.9;35.7;;;;;;;14.93;57.25;949.2899;;;;
2019/04/06 09:15:57;;;;;;;43.7;35.3;;;;;;;14.97;56.19238;949.301;;;;
2019/04/06 09:18:22;;;;;;;45.7;36.1;;;;;;;15.06;56.19238;949.269;;;;
2019/04/06 09:20:47;;;;;;;45.7;36.1;;;;;;;15.02;55.04199;949.2491;;;;
2019/04/06 09:23:13;;;;;;;45.3;35.2;;;;;;;14.92;55.56641;949.2087;;;;
2019/04/06 09:25:38;;;;;;;46.5;36.5;;;;;;;14.76;55.70898;949.2344;;;;
2019/04/06 09:28:03;;;;;;;49.9;39.8;;;;;;;14.65;55.52051;949.2595;;;;
2019/04/06 09:30:28;;;;;;;56.2;46.8;;;;;;;14.54;55.10938;949.1722;;;;
2019/04/06 09:32:53;;;;;;;48.4;38.2;;;;;;;14.53;55.3291;949.1619;;;;
2019/04/06 09:35:18;;;;;;;45;35.2;;;;;;;14.51;55.12988;949.1552;;;;
2019/04/06 09:37:43;;;;;;;44.1;34.5;;;;;;;14.51;56.18066;949.0444;;;;
2019/04/06 09:40:08;;;;;;;46.5;35.2;;;;;;;14.52;56.14648;949.0422;;;;
2019/04/06 09:42:33;;;;;;;46.9;35.7;;;;;;;14.53;55.42383;948.9856;;;;
2019/04/06 09:45:23;;;;;;;46.4;36.4;;;;;;;14.56;56;949.0144;;;;
2019/04/06 09:47:32;;;;;;;49.2;36.9;;;;;;;14.57;56.12891;948.9964;;;;
2019/04/06 09:51:17;;;;;;;47;36.5;;;;;;;14.56;57.14355;948.9382;;;;
2019/04/06 09:52:38;;;;;;;44.9;33.7;;;;;;;14.62;54.23242;948.8688;;;;
2019/04/06 09:59:38;;;;;;;48.9;35.8;;;;;;;15.73;53.94922;948.8395;;;;
2019/04/06 10:02:21;;;;;;;45.6;33.1;;;;;;;15.9;53.3125;948.8044;;;;
2019/04/06 10:06:54;;;;;;;48.5;36.1;;;;;;;15.82;51.86426;948.8936;;;;
2019/04/06 10:09:23;;;;;;;45.7;33.5;;;;;;;15.93;51.86523;948.7955;;;;
2019/04/06 10:19:59;;;;;;;43.7;31.4;;;;;;;16.21;50.5498;948.6995;;;;
2019/04/06 10:22:39;;;;;;;45.2;33.9;;;;;;;16.12;50.92676;948.7606;;;;
2019/04/06 10:24:50;;;;;;;41.9;32.5;;;;;;;16.09;50.60645;948.684;;;;
2019/04/06 10:27:23;;;;;;;42.9;32;;;;;;;16.21;51.26563;948.617;;;;
2019/04/06 10:29:40;;;;;;;41.8;32;;;;;;;16.53;50.86816;948.6525;;;;
2019/04/06 10:35:08;;;;;;;39.9;31.1;;;;;;;16.74;50.73926;948.6237;;;;
2019/04/06 10:37:03;;;;;;;37.9;30.3;;;;;;;16.93;48.43652;948.5764;;;;
2019/04/06 10:39:29;;;;;;;38.7;30.9;;;;;;;16.88;47.69238;948.541;;;;
2019/04/06 10:42:01;;;;;;;41;30.8;;;;;;;16.79;47.87012;948.5687;;;;
2019/04/06 10:44:35;;;;;;;41.8;30.9;;;;;;;16.66;48.4668;948.5197;;;;
2019/04/06 10:46:42;;;;;;;38.7;30.8;;;;;;;16.57;49.04199;948.423;;;;
2019/04/06 10:54:42;;;;;;;35.7;28;;;;;;;17;47.96387;948.3869;;;;
2019/04/06 11:01:33;;;;;;;30.1;25.9;;;;;;;18.05;46.18457;948.2712;;;;
2019/04/06 11:03:56;;;;;;;38.7;32.5;;;;;;;18.13;43.94434;948.2364;;;;
2019/04/06 11:06:31;;;;;;;31.3;25.4;;;;;;;18.05;43.67773;948.2144;;;;
2019/04/06 11:08:59;;;;;;;28.2;23.8;;;;;;;17.91;45.05176;948.1697;;;;
2019/04/06 11:16:27;;;;;;;25.8;22.4;;;;;;;18.07;43.53809;948.1044;;;;
2019/04/06 11:19:11;;;;;;;29.4;23.7;;;;;;;17.86;44.44727;948.0351;;;;
2019/04/06 11:21:35;;;;;;;27;22.7;;;;;;;17.73;45.32715;948.0527;;;;
2019/04/06 11:26:12;;;;;;;27.2;22.4;;;;;;;18.16;44.05273;947.9853;;;;
2019/04/06 11:28:39;;;;;;;25.6;21.6;;;;;;;18.39;43.2041;948.0027;;;;
2019/04/06 11:31:07;;;;;;;24.3;21;;;;;;;18.69;43.5166;947.9902;;;;
2019/04/06 11:35:54;;;;;;;24.2;21.3;;;;;;;18.58;42.44531;947.9669;;;;
2019/04/06 11:38:34;;;;;;;25.9;21.8;;;;;;;18.27;42.19238;947.8547;;;;
2019/04/06 11:41:29;;;;;;;25.5;21.3;;;;;;;18.22;43.69434;947.9054;;;;
2019/04/06 11:52:46;;;;;;;23.3;19.9;;;;;;;19.34;42.04688;947.8056;;;;
2019/04/06 11:57:19;;;;;;;23.2;20.2;;;;;;;20.25;39.3418;947.7773;;;;
2019/04/06 12:00:29;;;;;;;38.8;33.3;;;;;;;20.56;39.36816;947.8783;;;;
2019/04/06 12:04:49;;;;;;;29.1;23.3;;;;;;;20.46;38.31934;947.8088;;;;
2019/04/06 12:09:44;;;;;;;27.6;23.2;;;;;;;19.64;41.15332;947.8542;;;;
2019/04/06 12:12:51;;;;;;;27;22.7;;;;;;;19.83;40.58105;947.8381;;;;
2019/04/06 12:14:30;;;;;;;25.9;21.9;;;;;;;20.35;40.4502;947.9158;;;;
2019/04/06 12:19:27;;;;;;;24.6;21;;;;;;;20.92;37.62402;947.8014;;;;
2019/04/06 12:21:47;;;;;;;25.9;21.8;;;;;;;21.3;36.60156;947.8228;;;;
2019/04/06 12:24:29;;;;;;;23.2;20.4;;;;;;;21.59;37.65723;947.7924;;;;
2019/04/06 12:31:42;;;;;;;23.5;19.7;;;;;;;21.58;35.88867;947.743;;;;
2019/04/06 12:36:29;;;;;;;26.5;20.4;;;;;;;21.59;35.05859;947.8275;;;;
2019/04/06 12:38:52;;;;;;;24.4;21.2;;;;;;;21.73;35.94824;947.8403;;;;
2019/04/06 12:41:21;;;;;;;23.3;20.4;;;;;;;21.69;35.1377;947.8006;;;;
2019/04/06 12:43:45;;;;;;;25.4;19.8;;;;;;;21.74;34.94043;947.7906;;;;
2019/04/06 12:57:50;;;;;;;26.2;18.7;;;;;;;21.26;36.00488;947.8649;;;;
2019/04/06 13:00:19;;;;;;;20.2;18.1;;;;;;;21.4;36.25391;947.9182;;;;
2019/04/06 13:03:11;;;;;;;24.4;18.8;;;;;;;21.37;37.11621;947.8768;;;;
2019/04/06 13:05:08;;;;;;;19.5;17.4;;;;;;;21.67;37.66504;947.8164;;;;
2019/04/06 13:14:49;;;;;;;20.9;18.2;;;;;;;21.42;38.79297;947.728;;;;
2019/04/06 13:19:32;;;;;;;20.7;17.6;;;;;;;21.59;37.01563;947.6544;;;;
2019/04/06 13:22:01;;;;;;;20.1;18;;;;;;;21.62;36.18848;947.6735;;;;
2019/04/06 13:24:27;;;;;;;18.8;16.9;;;;;;;21.97;37.25;947.7006;;;;
2019/04/06 13:27:13;;;;;;;21.3;17.9;;;;;;;22.34;36.42578;947.6803;;;;
2019/04/06 13:29:21;;;;;;;22.7;18.1;;;;;;;22.04;36.45996;947.6803;;;;
2019/04/06 13:34:31;;;;;;;19.2;17.2;;;;;;;22.29;36.1123;947.6248;;;;
2019/04/06 13:37:02;;;;;;;14.5;13;;;;;;;22.71;36.00391;947.5639;;;;
2019/04/06 13:39:37;;;;;;;12.7;11.3;;;;;;;22.79;36.56934;947.5446;;;;
2019/04/06 13:46:59;;;;;;;16.6;14.8;;;;;;;23.6;32.84668;947.5134;;;;
2019/04/06 13:50:15;;;;;;;13.8;12.4;;;;;;;23.98;32.31348;947.5019;;;;
2019/04/06 13:51:49;;;;;;;17.8;15.9;;;;;;;23.6;32.17871;947.4403;;;;
2019/04/06 13:59:05;;;;;;;16.2;13.9;;;;;;;24.21;31.66211;947.3792;;;;
2019/04/06 14:02:06;;;;;;;14.6;12.6;;;;;;;24.53;32.17383;947.4612;;;;
2019/04/06 14:04:49;;;;;;;16.6;14.9;;;;;;;24.69;30.13086;947.4731;;;;
2019/04/06 14:06:52;;;;;;;14.6;12.8;;;;;;;24.64;30.9873;947.4874;;;;
2019/04/06 14:08:45;;;;;;;14.5;13.1;;;;;;;24.86;30.64453;947.4571;;;;
2019/04/06 14:11:25;;;;;;;16.9;15.2;;;;;;;24.6;30.5791;947.4423;;;;
2019/04/06 14:13:39;;;;;;;16.3;13.7;;;;;;;23.57;32.36621;947.3937;;;;
2019/04/06 14:15:58;;;;;;;13.6;12.3;;;;;;;23.69;32.50684;947.3912;;;;
2019/04/06 14:18:25;;;;;;;14.7;13.1;;;;;;;23.86;31.60059;947.4207;;;;
2019/04/06 14:22:20;;;;;;;12.6;11.3;;;;;;;24.03;32.3291;947.3306;;;;
2019/04/06 14:23:15;;;;;;;20.9;18.4;;;;;;;24.23;31.98535;947.3656;;;;
2019/04/06 14:28:04;;;;;;;14.5;13.1;;;;;;;23.51;32.08887;947.378;;;;
2019/04/06 14:30:32;;;;;;;14.9;13.3;;;;;;;23.48;31.99121;947.4056;;;;
2019/04/06 14:41:08;;;;;;;13;10.8;;;;;;;24.58;30.7207;947.3028;;;;
2019/04/06 14:43:24;;;;;;;15.6;13.4;;;;;;;24.51;29.64063;947.3594;;;;
2019/04/06 14:46:08;;;;;;;14.2;12.8;;;;;;;24.82;29.7334;947.399;;;;
2019/04/06 14:48:30;;;;;;;14.4;12.3;;;;;;;24.99;29.24219;947.3796;;;;
2019/04/06 14:51:25;;;;;;;13.2;11.5;;;;;;;25.27;29.78711;947.346;;;;
2019/04/06 15:01:02;;;;;;;12.1;10.6;;;;;;;25.48;29.10645;947.2961;;;;
2019/04/06 15:03:47;;;;;;;11.9;10.7;;;;;;;25.6;28.59961;947.2626;;;;
2019/04/06 15:05:42;;;;;;;12.3;11.1;;;;;;;25.75;28.76563;947.2769;;;;
2019/04/06 15:09:42;;;;;;;12.6;10.8;;;;;;;25.5;28.60547;947.2598;;;;
2019/04/06 15:10:26;;;;;;;12;9.8;;;;;;;25;29.87598;947.2734;;;;
2019/04/06 15:15:55;;;;;;;15.3;13.6;;;;;;;24.53;29.86914;947.308;;;;
2019/04/06 15:18:41;;;;;;;11.8;9.8;;;;;;;24.41;30.69629;947.2925;;;;
2019/04/06 15:20:40;;;;;;;12.6;10.8;;;;;;;24.5;29.85449;947.3139;;;;
2019/04/06 15:22:35;;;;;;;12.8;11.2;;;;;;;24.48;29.77051;947.3822;;;;
2019/04/06 15:27:28;;;;;;;11.2;9.9;;;;;;;25.12;29.64551;947.3409;;;;
2019/04/06 15:29:51;;;;;;;10.4;9.4;;;;;;;25.46;29.44141;947.3161;;;;
2019/04/06 15:32:23;;;;;;;12.6;11.3;;;;;;;25.48;27.55078;947.1336;;;;
2019/04/06 15:37:17;;;;;;;14.5;12.6;;;;;;;25.25;27.86035;947.1528;;;;
2019/04/06 15:40:30;;;;;;;15.4;12.7;;;;;;;25.02;28.13281;947.1472;;;;
2019/04/06 15:45:48;;;;;;;10.4;9.4;;;;;;;24.53;28.65137;947.1248;;;;
2019/04/06 15:51:44;;;;;;;11.3;10;;;;;;;24.68;28.41016;947.0204;;;;
2019/04/06 15:54:06;;;;;;;12.4;11.2;;;;;;;24.66;28.5166;947.0942;;;;
2019/04/06 15:56:17;;;;;;;12;10.7;;;;;;;24.37;28.56934;947.0552;;;;
2019/04/06 15:58:45;;;;;;;12.5;10.6;;;;;;;24.09;29.55371;947.0929;;;;
2019/04/06 16:01:09;;;;;;;11.6;10.4;;;;;;;23.93;29.37598;947.0976;;;;
2019/04/06 16:03:51;;;;;;;12;10.6;;;;;;;23.53;30.41113;947.0694;;;;
2019/04/06 16:06:26;;;;;;;13.2;11.8;;;;;;;23.28;30.73828;947.0164;;;;
